createdAt,value
2023-01-22T00:01:44.913Z,72.84
2023-01-22T00:06:36.521Z,72.65
2023-01-22T00:11:28.075Z,72.54
2023-01-22T00:16:20.381Z,71.67
2023-01-22T00:21:13.040Z,71.46
2023-01-22T00:26:07.309Z,71.04
2023-01-22T00:31:02.000Z,70.63
2023-01-22T00:35:53.875Z,70.20
2023-01-22T00:40:47.327Z,69.89
2023-01-22T00:45:39.944Z,69.63
2023-01-22T00:50:31.845Z,69.79
2023-01-22T00:55:24.397Z,70.08
2023-01-22T01:00:18.485Z,70.98
2023-01-22T01:05:11.666Z,71.91
2023-01-22T01:10:04.160Z,73.16
2023-01-22T01:14:56.410Z,73.52
2023-01-22T01:19:48.394Z,72.92
2023-01-22T01:24:40.016Z,72.62
2023-01-22T01:29:32.361Z,72.41
2023-01-22T01:34:23.984Z,73.01
2023-01-22T01:39:15.601Z,73.34
2023-01-22T01:44:18.465Z,73.69
2023-01-22T01:49:22.300Z,73.91
2023-01-22T01:54:15.548Z,73.87
2023-01-22T01:59:12.708Z,74.24
2023-01-22T02:04:04.551Z,74.23
2023-01-22T02:08:58.157Z,73.77
2023-01-22T02:13:55.901Z,73.86
2023-01-22T02:18:47.538Z,75.26
2023-01-22T02:23:39.134Z,75.03
2023-01-22T02:28:30.749Z,75.51
2023-01-22T02:33:22.381Z,75.66
2023-01-22T02:38:14.267Z,75.40
2023-01-22T02:43:06.016Z,75.61
2023-01-22T02:47:58.870Z,75.62
2023-01-22T02:52:52.417Z,75.36
2023-01-22T02:57:44.945Z,74.85
2023-01-22T03:02:36.615Z,75.47
2023-01-22T03:07:34.498Z,75.36
2023-01-22T03:12:27.889Z,75.61
2023-01-22T03:17:38.956Z,75.81
2023-01-22T03:22:30.692Z,75.36
2023-01-22T03:27:25.830Z,76.73
2023-01-22T03:32:18.460Z,76.07
2023-01-22T03:37:15.211Z,76.32
2023-01-22T03:42:09.388Z,77.07
2023-01-22T03:47:01.450Z,76.63
2023-01-22T03:51:53.090Z,77.30
2023-01-22T03:56:46.169Z,77.25
2023-01-22T04:01:46.414Z,76.80
2023-01-22T04:06:38.043Z,76.55
2023-01-22T04:11:29.678Z,76.63
2023-01-22T04:16:22.227Z,76.33
2023-01-22T04:21:23.177Z,76.24
2023-01-22T04:26:19.524Z,76.72
2023-01-22T04:31:11.251Z,76.59
2023-01-22T04:36:09.688Z,76.52
2023-01-22T04:41:01.972Z,76.08
2023-01-22T04:45:53.766Z,75.65
2023-01-22T04:50:51.263Z,75.77
2023-01-22T04:55:43.675Z,76.22
2023-01-22T05:00:38.652Z,75.30
2023-01-22T05:05:31.834Z,75.64
2023-01-22T05:10:24.219Z,75.84
2023-01-22T05:15:24.169Z,75.90
2023-01-22T05:20:19.420Z,75.99
2023-01-22T05:25:11.293Z,75.43
2023-01-22T05:30:04.447Z,75.54
2023-01-22T05:35:14.976Z,75.34
2023-01-22T05:40:09.829Z,76.29
2023-01-22T05:45:02.637Z,75.72
2023-01-22T05:49:56.507Z,75.14
2023-01-22T05:54:48.218Z,75.54
2023-01-22T05:59:40.120Z,75.16
2023-01-22T06:04:34.405Z,75.53
2023-01-22T06:09:30.779Z,75.31
2023-01-22T06:14:22.933Z,75.21
2023-01-22T06:19:14.763Z,75.02
2023-01-22T06:24:15.655Z,75.59
2023-01-22T06:29:07.328Z,75.44
2023-01-22T06:33:59.941Z,75.15
2023-01-22T06:38:51.825Z,75.76
2023-01-22T06:43:56.797Z,75.14
2023-01-22T06:48:49.931Z,75.57
2023-01-22T06:53:41.736Z,76.08
2023-01-22T06:58:33.330Z,76.39
2023-01-22T07:03:25.230Z,76.24
2023-01-22T07:08:16.861Z,77.00
2023-01-22T07:13:10.371Z,76.96
2023-01-22T07:18:02.012Z,76.83
2023-01-22T07:22:59.157Z,77.64
2023-01-22T07:27:51.396Z,78.02
2023-01-22T07:32:42.977Z,77.42
2023-01-22T07:37:34.931Z,78.39
2023-01-22T07:42:26.487Z,77.73
2023-01-22T07:47:18.131Z,78.42
2023-01-22T07:52:09.684Z,78.98
2023-01-22T07:57:01.215Z,78.39
2023-01-22T08:01:55.044Z,78.69
2023-01-22T08:06:46.661Z,77.95
2023-01-22T08:11:38.643Z,77.15
2023-01-22T08:16:30.217Z,77.10
2023-01-22T08:21:21.791Z,76.23
2023-01-22T08:26:13.451Z,76.90
2023-01-22T08:31:09.398Z,77.34
2023-01-22T08:36:03.062Z,77.14
2023-01-22T08:40:54.625Z,76.31
2023-01-22T08:45:49.303Z,75.94
2023-01-22T08:50:41.241Z,76.40
2023-01-22T08:55:32.803Z,75.59
2023-01-22T09:00:25.398Z,75.58
2023-01-22T09:05:17.188Z,75.27
2023-01-22T09:10:12.343Z,75.35
2023-01-22T09:15:04.253Z,75.21
2023-01-22T09:19:58.657Z,75.63
2023-01-22T09:24:50.218Z,75.79
2023-01-22T09:29:42.965Z,76.00
2023-01-22T09:34:34.665Z,77.26
2023-01-22T09:39:26.952Z,77.39
2023-01-22T09:44:24.615Z,78.18
2023-01-22T09:49:19.935Z,78.91
2023-01-22T09:54:15.436Z,78.12
2023-01-22T09:59:13.185Z,77.45
2023-01-22T10:04:14.131Z,76.42
2023-01-22T10:09:18.807Z,75.62
2023-01-22T10:14:15.777Z,74.01
2023-01-22T10:19:16.480Z,73.68
2023-01-22T10:24:10.859Z,72.92
2023-01-22T10:29:13.333Z,72.30
2023-01-22T10:34:13.537Z,74.33
2023-01-22T10:39:13.815Z,73.64
2023-01-22T10:44:26.587Z,73.00
2023-01-22T10:49:28.194Z,73.49
2023-01-22T10:54:43.825Z,73.86
2023-01-22T10:59:35.811Z,72.58
2023-01-22T11:04:33.302Z,73.07
2023-01-22T11:09:38.090Z,71.11
2023-01-22T11:14:35.920Z,71.97
2023-01-22T11:19:37.491Z,71.50
2023-01-22T11:24:37.588Z,71.88
2023-01-22T11:29:44.745Z,71.74
2023-01-22T11:35:11.152Z,71.01
2023-01-22T11:40:28.118Z,70.75
2023-01-22T11:45:41.612Z,70.16
2023-01-22T11:50:49.287Z,70.12
2023-01-22T11:55:49.063Z,70.67
2023-01-22T12:00:43.699Z,71.05
2023-01-22T12:06:02.838Z,71.03
2023-01-22T12:11:23.240Z,70.52
2023-01-22T12:16:25.752Z,70.98
2023-01-22T12:21:28.561Z,70.34
2023-01-22T12:26:27.839Z,70.80
2023-01-22T12:31:37.831Z,71.36
2023-01-22T12:36:32.643Z,71.66
2023-01-22T12:41:31.566Z,71.74
2023-01-22T12:46:33.863Z,71.70
2023-01-22T12:51:37.702Z,71.30
2023-01-22T12:56:32.502Z,72.23
2023-01-22T13:01:33.099Z,72.63
2023-01-22T13:06:43.589Z,72.95
2023-01-22T13:11:38.178Z,71.60
2023-01-22T13:16:36.283Z,72.31
2023-01-22T13:21:31.142Z,72.08
2023-01-22T13:26:26.465Z,72.33
2023-01-22T13:31:18.565Z,71.75
2023-01-22T13:36:11.570Z,72.12
2023-01-22T13:41:25.288Z,72.37
2023-01-22T13:46:17.204Z,72.41
2023-01-22T13:51:18.190Z,72.41
2023-01-22T13:56:17.844Z,72.07
2023-01-22T14:01:12.145Z,72.67
2023-01-22T14:06:06.906Z,72.32
2023-01-22T14:11:00.348Z,71.72
2023-01-22T14:16:01.592Z,72.27
2023-01-22T14:20:53.240Z,72.04
2023-01-22T14:25:47.313Z,71.87
2023-01-22T14:30:39.084Z,71.63
2023-01-22T14:35:31.156Z,71.97
2023-01-22T14:40:25.050Z,72.27
2023-01-22T14:45:18.397Z,72.38
2023-01-22T14:50:10.798Z,72.41
2023-01-22T14:55:02.402Z,72.79
2023-01-22T14:59:54.011Z,73.18
2023-01-22T15:04:46.025Z,73.11
2023-01-22T15:09:38.342Z,73.14
2023-01-22T15:14:29.994Z,73.59
2023-01-22T15:19:21.653Z,73.19
2023-01-22T15:24:13.691Z,72.35
2023-01-22T15:29:07.912Z,73.38
2023-01-22T15:34:01.925Z,72.92
2023-01-22T15:38:53.558Z,72.96
2023-01-22T15:43:46.303Z,72.88
2023-01-22T15:48:38.192Z,73.37
2023-01-22T15:53:29.927Z,73.17
2023-01-22T15:58:22.770Z,73.63
2023-01-22T16:03:15.492Z,73.90
2023-01-22T16:08:07.035Z,73.74
2023-01-22T16:12:58.835Z,74.04
2023-01-22T16:17:50.428Z,74.40
2023-01-22T16:22:45.497Z,73.92
2023-01-22T16:27:37.229Z,74.34
2023-01-22T16:32:28.824Z,74.80
2023-01-22T16:37:20.389Z,74.73
2023-01-22T16:42:12.193Z,74.86
2023-01-22T16:47:03.946Z,75.01
2023-01-22T16:52:12.942Z,75.08
2023-01-22T16:57:13.743Z,74.89
2023-01-22T17:02:12.100Z,74.92
2023-01-22T17:07:06.086Z,75.00
2023-01-22T17:12:03.727Z,75.09
2023-01-22T17:16:56.393Z,74.68
2023-01-22T17:21:55.253Z,74.66
2023-01-22T17:26:48.155Z,74.91
2023-01-22T17:31:39.904Z,75.28
2023-01-22T17:36:31.615Z,75.18
2023-01-22T17:41:24.931Z,75.05
2023-01-22T17:46:22.472Z,75.23
2023-01-22T17:51:19.486Z,75.39
2023-01-22T17:56:14.711Z,75.31
2023-01-22T18:01:08.109Z,75.23
2023-01-22T18:06:00.063Z,75.44
2023-01-22T18:10:52.761Z,75.66
2023-01-22T18:15:48.180Z,75.49
2023-01-22T18:20:43.815Z,75.49
2023-01-22T18:25:46.883Z,75.34
2023-01-22T18:30:38.603Z,75.73
2023-01-22T18:35:30.207Z,76.06
2023-01-22T18:40:21.803Z,75.77
2023-01-22T18:45:14.972Z,75.52
2023-01-22T18:50:08.939Z,75.30
2023-01-22T18:55:00.519Z,75.31
2023-01-22T18:59:52.180Z,75.74
2023-01-22T19:04:44.345Z,75.67
2023-01-22T19:09:36.373Z,75.57
2023-01-22T19:14:28.651Z,75.28
2023-01-22T19:19:22.776Z,74.38
2023-01-22T19:24:16.758Z,74.64
2023-01-22T19:29:12.032Z,74.45
2023-01-22T19:34:05.608Z,75.41
2023-01-22T19:38:58.997Z,75.29
2023-01-22T19:43:55.432Z,75.40
2023-01-22T19:48:47.145Z,75.54
2023-01-22T19:53:39.804Z,75.11
2023-01-22T19:58:31.569Z,75.65
2023-01-22T20:03:23.939Z,75.69
2023-01-22T20:08:15.828Z,75.20
2023-01-22T20:13:09.661Z,75.18
2023-01-22T20:18:01.449Z,75.29
2023-01-22T20:22:53.249Z,75.07
2023-01-22T20:27:45.049Z,74.85
2023-01-22T20:32:36.561Z,75.37
2023-01-22T20:37:28.199Z,75.36
2023-01-22T20:42:19.908Z,75.00
2023-01-22T20:47:11.900Z,75.19
2023-01-22T20:52:04.478Z,75.37
2023-01-22T20:56:56.384Z,75.20
2023-01-22T21:01:48.426Z,75.33
2023-01-22T21:06:40.807Z,75.86
2023-01-22T21:11:34.342Z,75.62
2023-01-22T21:16:32.496Z,75.55
2023-01-22T21:21:24.555Z,76.18
2023-01-22T21:26:19.322Z,75.91
2023-01-22T21:31:17.270Z,75.39
2023-01-22T21:36:09.947Z,76.02
2023-01-22T21:41:12.425Z,75.27
2023-01-22T21:46:22.428Z,75.74
2023-01-22T21:51:14.713Z,75.66
2023-01-22T21:56:07.211Z,75.97
2023-01-22T22:01:06.512Z,76.40
2023-01-22T22:46:31.923Z,76.35
2023-01-22T23:33:41.436Z,76.25
2023-01-22T23:38:33.433Z,75.66
2023-01-22T23:43:25.298Z,75.58
2023-01-22T23:48:17.521Z,75.04
2023-01-22T23:53:09.109Z,75.28
2023-01-22T23:58:00.619Z,74.90
